Time;durP1;ratioP1;P1;durP2;ratioP2;P2;SDS_P1;SDS_P2;PMS_P1;PMS_P2;Temp;Humidity;BMP_temperature;BMP_pressure;BME280_temperature;BME280_humidity;BME280_pressure;Samples;Min_cycle;Max_cycle;Signal;HPM_P1;HPM_P2
2022/11/13 00:00:33;;;;;;;10.70;7.40;;;;;;;;;;5114717;28;20414;-61
2022/11/13 00:02:59;;;;;;;21.20;10.43;;;;;;;;;;5114967;28;20030;-61
2022/11/13 00:05:25;;;;;;;12.88;8.38;;;;;;;;;;5115261;28;20031;-61
2022/11/13 00:07:52;;;;;;;8.00;5.80;;;;;;;;;;5114905;28;20024;-61
2022/11/13 00:10:18;;;;;;;5.45;3.60;;;;;;;;;;5114871;28;20030;-61
2022/11/13 00:12:44;;;;;;;6.43;4.10;;;;;;;;;;5114756;28;20366;-61
2022/11/13 00:15:11;;;;;;;7.20;4.15;;;;;;;;;;5114370;28;20036;-61
2022/11/13 00:17:37;;;;;;;9.15;3.60;;;;;;;;;;5096530;28;20030;-61
2022/11/13 00:20:04;;;;;;;9.50;6.82;;;;;;;;;;5114760;28;20032;-61
2022/11/13 00:22:30;;;;;;;6.78;4.47;;;;;;;;;;5114761;28;20024;-61
2022/11/13 00:24:56;;;;;;;8.68;4.55;;;;;;;;;;5114924;28;20027;-62
2022/11/13 00:27:22;;;;;;;9.43;4.18;;;;;;;;;;5114709;28;20066;-61
2022/11/13 00:29:49;;;;;;;7.82;4.00;;;;;;;;;;5096051;28;20027;-61
2022/11/13 00:32:15;;;;;;;18.77;3.67;;;;;;;;;;5114246;28;20096;-61
2022/11/13 00:34:41;;;;;;;8.95;3.58;;;;;;;;;;5113655;28;20023;-60
2022/11/13 00:37:08;;;;;;;8.02;3.53;;;;;;;;;;5114248;28;20043;-61
2022/11/13 00:39:34;;;;;;;5.80;2.88;;;;;;;;;;5114357;28;20015;-61
2022/11/13 00:42:00;;;;;;;4.90;3.28;;;;;;;;;;5114243;28;20020;-61
2022/11/13 00:44:27;;;;;;;6.63;2.95;;;;;;;;;;5111377;28;20028;-61
2022/11/13 00:46:53;;;;;;;3.75;2.60;;;;;;;;;;5080457;28;20019;-61
2022/11/13 00:49:19;;;;;;;4.28;2.42;;;;;;;;;;5114105;28;20032;-61
2022/11/13 00:51:45;;;;;;;7.55;2.80;;;;;;;;;;5113958;28;20016;-61
2022/11/13 00:54:12;;;;;;;6.03;3.42;;;;;;;;;;5114125;28;20442;-61
2022/11/13 00:56:38;;;;;;;5.97;2.50;;;;;;;;;;5114345;28;20026;-61
2022/11/13 00:59:04;;;;;;;7.25;3.10;;;;;;;;;;5113446;28;20379;-61
2022/11/13 01:01:31;;;;;;;11.63;7.32;;;;;;;;;;5096002;28;20030;-61
2022/11/13 01:03:57;;;;;;;6.22;3.30;;;;;;;;;;5113783;28;20012;-61
2022/11/13 01:06:25;;;;;;;3.63;2.35;;;;;;;;;;5113816;28;20490;-61
2022/11/13 01:08:54;;;;;;;4.22;2.50;;;;;;;;;;5113502;28;20026;-61
2022/11/13 01:11:21;;;;;;;3.72;2.40;;;;;;;;;;5113668;28;20034;-61
2022/11/13 01:13:49;;;;;;;5.38;2.22;;;;;;;;;;5113102;28;20038;-60
2022/11/13 01:16:16;;;;;;;3.53;2.35;;;;;;;;;;5113814;28;20583;-61
2022/11/13 01:18:43;;;;;;;3.88;2.45;;;;;;;;;;5113714;28;20024;-61
2022/11/13 01:21:13;;;;;;;4.00;2.58;;;;;;;;;;5113218;28;20084;-61
2022/11/13 01:23:40;;;;;;;6.65;2.88;;;;;;;;;;5113383;28;20024;-61
2022/11/13 01:26:08;;;;;;;5.97;2.55;;;;;;;;;;5113432;28;20045;-61
2022/11/13 01:28:34;;;;;;;4.30;2.45;;;;;;;;;;5112875;28;20378;-61
2022/11/13 01:31:03;;;;;;;5.65;2.58;;;;;;;;;;5113309;28;20030;-61
2022/11/13 01:33:30;;;;;;;4.75;2.75;;;;;;;;;;5113101;28;20546;-60
2022/11/13 01:36:07;;;;;;;5.50;2.50;;;;;;;;;;5113040;28;20023;-60
2022/11/13 01:38:33;;;;;;;6.22;2.65;;;;;;;;;;5094846;28;20036;-61
2022/11/13 01:41:00;;;;;;;4.75;2.17;;;;;;;;;;5112528;28;20026;-60
2022/11/13 01:43:28;;;;;;;3.13;2.22;;;;;;;;;;5113243;28;20030;-61
2022/11/13 01:45:58;;;;;;;5.72;2.20;;;;;;;;;;5097839;28;20030;-61
2022/11/13 01:48:31;;;;;;;8.63;2.10;;;;;;;;;;5110716;28;20032;-60
2022/11/13 01:50:58;;;;;;;3.22;2.05;;;;;;;;;;5112980;28;20019;-61
2022/11/13 01:53:24;;;;;;;3.17;1.90;;;;;;;;;;5113233;28;20027;-61
2022/11/13 01:55:51;;;;;;;4.80;2.10;;;;;;;;;;5112611;28;20031;-61
2022/11/13 01:58:17;;;;;;;5.47;2.15;;;;;;;;;;5112969;28;20091;-61
2022/11/13 02:00:44;;;;;;;3.88;2.65;;;;;;;;;;5113090;28;20023;-61
2022/11/13 02:03:10;;;;;;;5.30;2.55;;;;;;;;;;5112850;28;20042;-61
2022/11/13 02:05:36;;;;;;;5.03;2.58;;;;;;;;;;5113031;28;20026;-61
2022/11/13 02:08:03;;;;;;;3.17;2.17;;;;;;;;;;5112698;28;20472;-61
2022/11/13 02:10:29;;;;;;;5.15;2.45;;;;;;;;;;5112237;28;20023;-60
2022/11/13 02:12:56;;;;;;;4.50;2.15;;;;;;;;;;5112729;28;20019;-61
2022/11/13 02:15:24;;;;;;;2.97;2.22;;;;;;;;;;5094270;28;20036;-60
2022/11/13 02:17:57;;;;;;;4.53;2.70;;;;;;;;;;5112845;28;20038;-61
2022/11/13 02:20:30;;;;;;;9.55;2.97;;;;;;;;;;5112419;28;20031;-61
2022/11/13 02:22:56;;;;;;;6.47;2.40;;;;;;;;;;5112866;28;20079;-61
2022/11/13 02:25:24;;;;;;;4.40;2.70;;;;;;;;;;5112261;28;20019;-61
2022/11/13 02:27:50;;;;;;;4.00;2.20;;;;;;;;;;5112362;28;20396;-61
2022/11/13 02:30:21;;;;;;;2.25;1.92;;;;;;;;;;5112696;28;20028;-61
2022/11/13 02:32:48;;;;;;;;;;;;;;;;;;5112876;28;20491;-60
2022/11/13 02:35:33;;;;;;;5.85;2.15;;;;;;;;;;5112397;28;19919;-61
2022/11/13 02:38:01;;;;;;;3.95;2.03;;;;;;;;;;5112296;28;20504;-61
2022/11/13 02:40:28;;;;;;;5.22;2.78;;;;;;;;;;5093765;28;20043;-61
2022/11/13 02:42:54;;;;;;;2.72;1.92;;;;;;;;;;5112298;28;20023;-61
2022/11/13 02:45:20;;;;;;;5.03;2.10;;;;;;;;;;5102082;28;20392;-61
2022/11/13 02:47:47;;;;;;;6.03;2.00;;;;;;;;;;5104517;28;20020;-61
2022/11/13 02:50:13;;;;;;;3.67;1.70;;;;;;;;;;5112308;28;20027;-61
2022/11/13 02:52:40;;;;;;;2.83;1.90;;;;;;;;;;5112317;28;20049;-61
2022/11/13 02:55:06;;;;;;;3.80;1.95;;;;;;;;;;5111788;28;20506;-61
2022/11/13 02:57:33;;;;;;;2.97;1.77;;;;;;;;;;5114709;28;20019;-61
2022/11/13 02:59:59;;;;;;;4.65;1.98;;;;;;;;;;5116470;28;20027;-61
2022/11/13 03:02:25;;;;;;;3.90;2.25;;;;;;;;;;5116459;28;20116;-61
2022/11/13 03:04:51;;;;;;;5.50;1.75;;;;;;;;;;5116231;28;20023;-61
2022/11/13 03:07:18;;;;;;;8.02;2.53;;;;;;;;;;5116152;28;20023;-61
2022/11/13 03:09:44;;;;;;;6.10;1.77;;;;;;;;;;5115688;28;20089;-61
2022/11/13 03:12:11;;;;;;;3.13;2.10;;;;;;;;;;5116067;28;20064;-61
2022/11/13 03:14:37;;;;;;;5.13;2.13;;;;;;;;;;5115880;28;20415;-61
2022/11/13 03:17:03;;;;;;;3.17;1.90;;;;;;;;;;5115728;28;20026;-59
2022/11/13 03:19:29;;;;;;;5.63;2.00;;;;;;;;;;5115828;28;20038;-60
2022/11/13 03:21:56;;;;;;;3.70;2.17;;;;;;;;;;5115998;28;20469;-60
2022/11/13 03:24:22;;;;;;;3.15;1.70;;;;;;;;;;5097254;28;20027;-60
2022/11/13 03:26:48;;;;;;;3.08;2.15;;;;;;;;;;5115766;28;20030;-60
2022/11/13 03:29:15;;;;;;;4.90;2.08;;;;;;;;;;5115848;28;20034;-60
2022/11/13 03:31:41;;;;;;;4.05;1.83;;;;;;;;;;5115638;28;20042;-60
2022/11/13 03:34:07;;;;;;;4.32;2.10;;;;;;;;;;5115694;28;20036;-61
2022/11/13 03:36:34;;;;;;;5.78;1.92;;;;;;;;;;5115364;28;20411;-61
2022/11/13 03:39:00;;;;;;;4.03;2.40;;;;;;;;;;5115241;28;20028;-61
2022/11/13 03:41:26;;;;;;;5.97;2.25;;;;;;;;;;5115656;28;20038;-60
2022/11/13 03:43:53;;;;;;;4.28;2.10;;;;;;;;;;5115407;28;20023;-60
2022/11/13 03:46:19;;;;;;;4.80;1.77;;;;;;;;;;5097065;28;20388;-61
2022/11/13 03:48:45;;;;;;;3.22;1.73;;;;;;;;;;5115711;28;20028;-61
2022/11/13 03:51:12;;;;;;;3.50;1.60;;;;;;;;;;5115080;28;20024;-61
2022/11/13 03:53:38;;;;;;;4.35;2.03;;;;;;;;;;5114948;28;20028;-61
2022/11/13 03:56:04;;;;;;;4.85;1.80;;;;;;;;;;5115269;28;20023;-61
2022/11/13 03:58:31;;;;;;;1.95;1.42;;;;;;;;;;5115332;28;20024;-61
2022/11/13 04:00:57;;;;;;;4.00;1.92;;;;;;;;;;5115063;28;20023;-61
2022/11/13 04:03:23;;;;;;;4.63;1.80;;;;;;;;;;5115258;28;20019;-61
2022/11/13 04:05:50;;;;;;;2.92;1.60;;;;;;;;;;5114652;28;20601;-60
2022/11/13 04:08:16;;;;;;;2.83;1.55;;;;;;;;;;5096829;28;20081;-61
2022/11/13 04:10:43;;;;;;;8.48;1.98;;;;;;;;;;5114854;28;20481;-61
2022/11/13 04:13:09;;;;;;;3.38;1.95;;;;;;;;;;5096340;28;20016;-61
2022/11/13 04:15:35;;;;;;;6.00;1.70;;;;;;;;;;5114616;28;20038;-61
2022/11/13 04:18:02;;;;;;;4.00;1.90;;;;;;;;;;5114792;28;20038;-61
2022/11/13 04:20:29;;;;;;;5.32;1.80;;;;;;;;;;5096053;28;20033;-61
2022/11/13 04:22:55;;;;;;;3.03;1.60;;;;;;;;;;5114628;28;20028;-61
2022/11/13 04:25:22;;;;;;;2.40;1.80;;;;;;;;;;5096321;28;20012;-61
2022/11/13 04:27:49;;;;;;;3.30;2.03;;;;;;;;;;5114402;28;20027;-61
2022/11/13 04:30:15;;;;;;;3.00;1.92;;;;;;;;;;5114435;28;20019;-61
2022/11/13 04:32:42;;;;;;;2.35;1.67;;;;;;;;;;5114698;28;20036;-61
2022/11/13 04:35:09;;;;;;;3.30;1.88;;;;;;;;;;5113896;28;20050;-61
2022/11/13 04:37:36;;;;;;;3.80;2.08;;;;;;;;;;5114311;28;20491;-61
2022/11/13 04:40:03;;;;;;;5.28;1.63;;;;;;;;;;5114308;28;20034;-61
2022/11/13 04:42:47;;;;;;;3.15;1.85;;;;;;;;;;5114555;28;20024;-61
2022/11/13 04:45:14;;;;;;;3.95;1.90;;;;;;;;;;5104872;28;20399;-61
2022/11/13 04:47:41;;;;;;;4.65;1.67;;;;;;;;;;5105533;28;20022;-61
2022/11/13 04:50:07;;;;;;;2.22;1.65;;;;;;;;;;5113905;28;20027;-61
2022/11/13 04:52:33;;;;;;;3.38;1.88;;;;;;;;;;5114146;28;20027;-60
2022/11/13 04:55:00;;;;;;;3.65;1.90;;;;;;;;;;5113963;28;20027;-61
2022/11/13 04:57:26;;;;;;;5.05;1.80;;;;;;;;;;5113965;28;20024;-61
2022/11/13 04:59:52;;;;;;;5.03;1.60;;;;;;;;;;5114016;28;20053;-61
2022/11/13 05:02:19;;;;;;;2.22;1.83;;;;;;;;;;5114054;28;20050;-61
2022/11/13 05:04:45;;;;;;;3.08;2.10;;;;;;;;;;5113538;28;20034;-60
2022/11/13 05:07:12;;;;;;;4.10;2.10;;;;;;;;;;5095542;28;20031;-60
2022/11/13 05:09:38;;;;;;;3.45;2.05;;;;;;;;;;5113412;28;20047;-61
2022/11/13 05:12:06;;;;;;;5.10;2.00;;;;;;;;;;5114046;28;20022;-61
2022/11/13 05:14:39;;;;;;;2.92;1.92;;;;;;;;;;5113481;28;20396;-61
2022/11/13 05:17:06;;;;;;;2.13;1.92;;;;;;;;;;5113612;28;20026;-61
2022/11/13 05:19:33;;;;;;;6.85;2.08;;;;;;;;;;5112678;28;20080;-61
2022/11/13 05:21:59;;;;;;;3.03;2.08;;;;;;;;;;5113485;28;20027;-60
2022/11/13 05:24:26;;;;;;;5.10;2.10;;;;;;;;;;5113436;28;20011;-61
2022/11/13 05:26:52;;;;;;;3.08;2.00;;;;;;;;;;5113723;28;20053;-61
2022/11/13 05:29:19;;;;;;;3.35;2.10;;;;;;;;;;5113403;28;20032;-61
2022/11/13 05:31:46;;;;;;;2.88;2.03;;;;;;;;;;5113268;28;20370;-61
2022/11/13 05:34:12;;;;;;;7.97;1.63;;;;;;;;;;5112871;28;20135;-61
2022/11/13 05:36:38;;;;;;;4.22;2.08;;;;;;;;;;5113214;28;20058;-61
2022/11/13 05:39:05;;;;;;;4.68;1.90;;;;;;;;;;5113248;28;20016;-61
2022/11/13 05:41:31;;;;;;;3.60;2.25;;;;;;;;;;5113077;28;20492;-61
2022/11/13 05:43:57;;;;;;;6.35;2.20;;;;;;;;;;5113306;28;20111;-61
2022/11/13 05:46:25;;;;;;;3.17;1.85;;;;;;;;;;5076521;28;20028;-61
2022/11/13 05:48:53;;;;;;;7.13;1.70;;;;;;;;;;5112551;28;20035;-61
2022/11/13 05:51:21;;;;;;;3.85;2.10;;;;;;;;;;5113181;28;20022;-61
2022/11/13 05:53:47;;;;;;;8.02;2.70;;;;;;;;;;5112933;28;20038;-61
2022/11/13 05:56:24;;;;;;;4.55;2.35;;;;;;;;;;5112894;28;20026;-61
2022/11/13 05:58:51;;;;;;;5.13;2.63;;;;;;;;;;5113118;28;20026;-61
2022/11/13 06:01:22;;;;;;;6.43;2.90;;;;;;;;;;5113032;28;20041;-61
2022/11/13 06:03:48;;;;;;;;;;;;;;;;;;5112771;28;20398;-61
2022/11/13 06:06:16;;;;;;;4.93;2.40;;;;;;;;;;5112762;28;19910;-61
2022/11/13 06:08:42;;;;;;;13.23;7.78;;;;;;;;;;5112757;28;20020;-61
2022/11/13 06:11:10;;;;;;;9.30;4.70;;;;;;;;;;5112640;28;20020;-61
2022/11/13 06:13:36;;;;;;;5.82;3.83;;;;;;;;;;5112645;28;20039;-61
2022/11/13 06:16:13;;;;;;;7.30;2.60;;;;;;;;;;5113131;28;20027;-61
2022/11/13 06:18:40;;;;;;;9.63;4.72;;;;;;;;;;5112458;28;20050;-61
2022/11/13 06:21:11;;;;;;;19.40;10.32;;;;;;;;;;5112488;28;20020;-61
2022/11/13 06:23:38;;;;;;;26.98;16.85;;;;;;;;;;5112528;28;20073;-61
2022/11/13 06:26:15;;;;;;;18.63;9.95;;;;;;;;;;5113141;28;20031;-61
2022/11/13 06:28:41;;;;;;;19.25;10.93;;;;;;;;;;5112416;28;20488;-60
2022/11/13 06:31:09;;;;;;;22.45;12.82;;;;;;;;;;5112083;28;20027;-61
2022/11/13 06:33:36;;;;;;;20.77;10.93;;;;;;;;;;5116648;28;20023;-61
2022/11/13 06:36:07;;;;;;;7.95;4.35;;;;;;;;;;5116566;28;20031;-61
2022/11/13 06:38:35;;;;;;;4.55;2.78;;;;;;;;;;5116988;28;20019;-60
2022/11/13 06:41:02;;;;;;;3.47;2.60;;;;;;;;;;5116565;28;20480;-61
2022/11/13 06:43:29;;;;;;;3.17;2.45;;;;;;;;;;5116819;28;20024;-60
2022/11/13 06:45:55;;;;;;;3.85;2.50;;;;;;;;;;5100970;28;20489;-59
2022/11/13 06:48:22;;;;;;;14.20;4.90;;;;;;;;;;5114024;28;20030;-61
2022/11/13 06:50:48;;;;;;;12.40;6.45;;;;;;;;;;5098089;28;20035;-60
2022/11/13 06:53:15;;;;;;;18.40;8.20;;;;;;;;;;5116456;28;20022;-60
2022/11/13 06:55:48;;;;;;;9.55;5.00;;;;;;;;;;5116132;28;20038;-60
2022/11/13 06:58:15;;;;;;;10.35;6.55;;;;;;;;;;5116245;28;20366;-60
2022/11/13 07:00:42;;;;;;;11.02;6.53;;;;;;;;;;5115806;28;20042;-61
2022/11/13 07:03:19;;;;;;;14.63;8.40;;;;;;;;;;5116167;28;20030;-61
2022/11/13 07:05:45;;;;;;;10.93;6.50;;;;;;;;;;5097794;28;20369;-61
2022/11/13 07:08:12;;;;;;;9.43;6.30;;;;;;;;;;5116071;28;20045;-61
2022/11/13 07:10:38;;;;;;;11.65;6.35;;;;;;;;;;5116052;28;20023;-61
2022/11/13 07:13:05;;;;;;;8.65;5.65;;;;;;;;;;5115975;28;20387;-61
2022/11/13 07:15:35;;;;;;;6.47;3.80;;;;;;;;;;5115445;28;20040;-61
2022/11/13 07:18:02;;;;;;;15.30;3.47;;;;;;;;;;5115936;28;20015;-61
2022/11/13 07:20:28;;;;;;;8.20;4.22;;;;;;;;;;5115664;28;20031;-61
2022/11/13 07:22:55;;;;;;;15.73;4.88;;;;;;;;;;5097635;28;20019;-61
2022/11/13 07:25:22;;;;;;;13.70;5.07;;;;;;;;;;5115769;28;20100;-61
2022/11/13 07:27:48;;;;;;;21.83;13.20;;;;;;;;;;5115716;28;20023;-61
2022/11/13 07:30:14;;;;;;;20.75;11.35;;;;;;;;;;5115682;28;20026;-61
2022/11/13 07:32:41;;;;;;;17.80;8.63;;;;;;;;;;5115549;28;20373;-60
2022/11/13 07:35:07;;;;;;;21.52;10.77;;;;;;;;;;5115533;28;20032;-61
2022/11/13 07:37:34;;;;;;;16.65;9.90;;;;;;;;;;5115453;28;20046;-60
2022/11/13 07:40:00;;;;;;;8.85;5.57;;;;;;;;;;5115784;28;20035;-61
2022/11/13 07:42:26;;;;;;;10.35;5.50;;;;;;;;;;5114991;28;20016;-61
2022/11/13 07:44:53;;;;;;;9.50;4.93;;;;;;;;;;5090435;28;20032;-61
2022/11/13 07:47:19;;;;;;;9.63;3.65;;;;;;;;;;5103824;28;20027;-61
2022/11/13 07:49:45;;;;;;;7.63;3.78;;;;;;;;;;5115181;28;20023;-61
2022/11/13 07:52:11;;;;;;;6.15;3.35;;;;;;;;;;5115160;28;20480;-61
2022/11/13 07:54:38;;;;;;;11.50;3.33;;;;;;;;;;5115251;28;20036;-61
2022/11/13 07:57:04;;;;;;;5.35;3.42;;;;;;;;;;5115377;28;20020;-61
2022/11/13 07:59:30;;;;;;;7.55;3.28;;;;;;;;;;5114747;28;20015;-61
2022/11/13 08:01:57;;;;;;;4.47;2.80;;;;;;;;;;5115060;28;20027;-61
2022/11/13 08:04:23;;;;;;;4.90;2.45;;;;;;;;;;5115241;28;20031;-61
2022/11/13 08:06:49;;;;;;;5.75;2.35;;;;;;;;;;5114921;28;20615;-61
2022/11/13 08:09:15;;;;;;;5.05;2.60;;;;;;;;;;5096587;28;20034;-61
2022/11/13 08:11:42;;;;;;;8.43;2.50;;;;;;;;;;5114916;28;20031;-61
2022/11/13 08:14:08;;;;;;;3.55;2.60;;;;;;;;;;5114668;28;20036;-61
2022/11/13 08:16:34;;;;;;;6.00;2.47;;;;;;;;;;5114707;28;20050;-61
2022/11/13 08:19:01;;;;;;;10.05;4.38;;;;;;;;;;5114777;28;20477;-61
2022/11/13 08:21:28;;;;;;;5.20;3.05;;;;;;;;;;5114974;28;20031;-61
2022/11/13 08:23:54;;;;;;;12.45;6.00;;;;;;;;;;5096318;28;20020;-60
2022/11/13 08:26:21;;;;;;;12.60;6.47;;;;;;;;;;5114878;28;20076;-61
2022/11/13 08:28:47;;;;;;;26.90;10.32;;;;;;;;;;5114535;28;20015;-61
2022/11/13 08:31:15;;;;;;;15.70;6.10;;;;;;;;;;5114453;28;20500;-61
2022/11/13 08:33:41;;;;;;;8.85;4.18;;;;;;;;;;5114621;28;20024;-61
2022/11/13 08:36:08;;;;;;;6.10;2.42;;;;;;;;;;5114433;28;20052;-61
2022/11/13 08:38:34;;;;;;;4.68;2.10;;;;;;;;;;5114384;28;20035;-62
2022/11/13 08:41:03;;;;;;;4.53;2.40;;;;;;;;;;5114572;28;20020;-61
2022/11/13 08:43:29;;;;;;;4.90;2.00;;;;;;;;;;5113984;28;20027;-61
2022/11/13 08:45:55;;;;;;;7.00;2.00;;;;;;;;;;5080846;28;20050;-61
2022/11/13 08:48:23;;;;;;;5.35;2.25;;;;;;;;;;5111323;28;20030;-61
2022/11/13 08:50:53;;;;;;;10.18;2.28;;;;;;;;;;5114416;28;20031;-61
2022/11/13 08:53:19;;;;;;;6.72;2.28;;;;;;;;;;5114055;28;20015;-61
2022/11/13 08:55:45;;;;;;;7.40;2.17;;;;;;;;;;5112606;28;20093;-61
2022/11/13 08:58:12;;;;;;;6.78;2.72;;;;;;;;;;5113960;28;20016;-61
2022/11/13 09:00:38;;;;;;;5.65;2.78;;;;;;;;;;5114201;28;20032;-61
2022/11/13 09:03:04;;;;;;;5.55;2.78;;;;;;;;;;5113943;28;20076;-61
2022/11/13 09:05:31;;;;;;;10.38;3.78;;;;;;;;;;5113956;28;20072;-61
2022/11/13 09:07:58;;;;;;;8.30;3.65;;;;;;;;;;5114085;28;20022;-61
2022/11/13 09:10:24;;;;;;;6.63;3.40;;;;;;;;;;5113221;28;20041;-61
2022/11/13 09:13:00;;;;;;;6.57;3.15;;;;;;;;;;5113658;28;20399;-61
2022/11/13 09:15:27;;;;;;;8.75;3.80;;;;;;;;;;5113603;28;20024;-61
2022/11/13 09:18:00;;;;;;;6.85;3.83;;;;;;;;;;5113493;28;20404;-61
2022/11/13 09:20:27;;;;;;;7.72;2.90;;;;;;;;;;5113366;28;20024;-61
2022/11/13 09:23:00;;;;;;;3.45;2.30;;;;;;;;;;5113389;28;20016;-61
2022/11/13 09:25:27;;;;;;;4.53;2.35;;;;;;;;;;5113184;28;20510;-61
2022/11/13 09:28:00;;;;;;;4.72;2.35;;;;;;;;;;5113902;28;20015;-61
2022/11/13 09:30:27;;;;;;;5.47;2.53;;;;;;;;;;5113345;28;20016;-61
2022/11/13 09:32:54;;;;;;;4.97;2.20;;;;;;;;;;5113623;28;20022;-61
2022/11/13 09:35:32;;;;;;;6.15;2.20;;;;;;;;;;5113009;28;20502;-62
2022/11/13 09:38:25;;;;;;;6.10;2.55;;;;;;;;;;5112918;28;20509;-61
2022/11/13 09:41:03;;;;;;;5.80;2.38;;;;;;;;;;5108597;28;20036;-61
2022/11/13 09:43:30;;;;;;;4.47;2.15;;;;;;;;;;5112909;28;20443;-62
2022/11/13 09:46:02;;;;;;;6.38;2.55;;;;;;;;;;5097677;28;20496;-61
2022/11/13 09:48:39;;;;;;;2.50;1.90;;;;;;;;;;5111300;28;20024;-62
2022/11/13 09:51:10;;;;;;;5.50;2.10;;;;;;;;;;5112993;28;20016;-61
2022/11/13 09:53:37;;;;;;;4.57;2.42;;;;;;;;;;5112991;28;20023;-62
2022/11/13 09:56:20;;;;;;;5.15;2.38;;;;;;;;;;5112752;28;20476;-62
2022/11/13 09:58:54;;;;;;;3.00;2.08;;;;;;;;;;5113090;28;20024;-61
2022/11/13 10:01:43;;;;;;;4.63;2.53;;;;;;;;;;5112935;28;20442;-62
2022/11/13 10:04:12;;;;;;;7.47;2.45;;;;;;;;;;5113167;28;20030;-62
2022/11/13 10:06:54;;;;;;;3.40;2.30;;;;;;;;;;5112529;28;20023;-62
2022/11/13 10:09:28;;;;;;;3.00;2.08;;;;;;;;;;5112511;28;20015;-62
2022/11/13 10:11:57;;;;;;;5.47;2.38;;;;;;;;;;5112766;28;20062;-62
2022/11/13 10:14:44;;;;;;;5.50;2.53;;;;;;;;;;5112836;28;20148;-62
2022/11/13 10:17:26;;;;;;;4.03;1.85;;;;;;;;;;5112467;28;20486;-62
2022/11/13 10:19:59;;;;;;;4.18;1.70;;;;;;;;;;5091631;28;20031;-61
2022/11/13 10:22:46;;;;;;;4.20;1.65;;;;;;;;;;5092321;28;20027;-62
2022/11/13 10:25:17;;;;;;;3.03;1.60;;;;;;;;;;5078027;28;20043;-61
2022/11/13 10:27:48;;;;;;;2.15;1.35;;;;;;;;;;5092110;28;20565;-62
2022/11/13 10:30:15;;;;;;;5.40;1.80;;;;;;;;;;5092062;28;20073;-62
2022/11/13 10:32:43;;;;;;;6.18;2.00;;;;;;;;;;5092054;28;20427;-62
2022/11/13 10:35:12;;;;;;;3.70;2.10;;;;;;;;;;5091860;28;20036;-62
2022/11/13 10:37:52;;;;;;;3.22;2.03;;;;;;;;;;5091563;28;20100;-62
2022/11/13 10:40:25;;;;;;;3.42;1.60;;;;;;;;;;5091797;28;20028;-62
2022/11/13 10:42:51;;;;;;;3.92;1.63;;;;;;;;;;5092022;28;20043;-61
2022/11/13 10:45:19;;;;;;;3.13;1.80;;;;;;;;;;5092230;28;20058;-60
2022/11/13 10:47:47;;;;;;;4.72;1.98;;;;;;;;;;5086064;28;20027;-62
2022/11/13 10:50:27;;;;;;;4.13;2.20;;;;;;;;;;5112260;28;20054;-62
2022/11/13 10:52:54;;;;;;;3.78;1.92;;;;;;;;;;5111894;28;20034;-62
2022/11/13 10:55:37;;;;;;;3.55;2.03;;;;;;;;;;5112192;28;20035;-61
2022/11/13 10:58:10;;;;;;;3.83;1.90;;;;;;;;;;5112253;28;20023;-62
2022/11/13 11:00:40;;;;;;;3.33;2.20;;;;;;;;;;5112234;28;20019;-61
2022/11/13 11:03:15;;;;;;;6.47;2.20;;;;;;;;;;5112454;28;20087;-62
2022/11/13 11:05:51;;;;;;;5.40;2.00;;;;;;;;;;5112110;28;20058;-62
2022/11/13 11:08:18;;;;;;;5.07;2.17;;;;;;;;;;5112094;28;20019;-62
2022/11/13 11:13:38;;;;;;;5.28;2.05;;;;;;;;;;5112317;28;20036;-61
2022/11/13 11:16:05;;;;;;;5.38;2.20;;;;;;;;;;5112100;28;20030;-62
2022/11/13 11:18:50;;;;;;;5.00;2.00;;;;;;;;;;5114348;28;20020;-61
2022/11/13 11:21:19;;;;;;;5.38;1.60;;;;;;;;;;5115575;28;20016;-61
2022/11/13 11:23:46;;;;;;;6.07;2.22;;;;;;;;;;5115723;28;20020;-61
2022/11/13 11:26:20;;;;;;;10.15;2.05;;;;;;;;;;5115703;28;20480;-62
2022/11/13 11:28:47;;;;;;;4.38;1.80;;;;;;;;;;5115742;28;20391;-62
2022/11/13 11:31:16;;;;;;;8.93;2.28;;;;;;;;;;5115726;28;20024;-61
2022/11/13 11:33:50;;;;;;;4.63;1.95;;;;;;;;;;5115818;28;20030;-62
2022/11/13 11:36:34;;;;;;;2.60;1.95;;;;;;;;;;5115361;28;20044;-62
2022/11/13 11:39:03;;;;;;;6.55;2.08;;;;;;;;;;5115513;28;20035;-62
2022/11/13 11:41:34;;;;;;;3.95;1.90;;;;;;;;;;5115449;28;20038;-62
2022/11/13 11:44:05;;;;;;;3.97;1.80;;;;;;;;;;5115512;28;20052;-62
2022/11/13 11:46:31;;;;;;;5.78;1.92;;;;;;;;;;5097063;28;20388;-62
2022/11/13 11:49:00;;;;;;;5.20;2.42;;;;;;;;;;5115316;28;20049;-62
2022/11/13 11:51:31;;;;;;;7.22;2.05;;;;;;;;;;5114923;28;20022;-62
2022/11/13 11:53:57;;;;;;;6.20;2.10;;;;;;;;;;5097030;28;20038;-62
2022/11/13 11:56:35;;;;;;;6.05;2.60;;;;;;;;;;5115130;28;20038;-62
2022/11/13 11:59:02;;;;;;;4.75;2.33;;;;;;;;;;5115072;28;20480;-62
2022/11/13 12:01:34;;;;;;;3.95;1.90;;;;;;;;;;5115226;28;20458;-62
2022/11/13 12:04:14;;;;;;;5.95;1.80;;;;;;;;;;5115041;28;20033;-62
2022/11/13 12:07:13;;;;;;;2.95;2.15;;;;;;;;;;5115019;28;20043;-61
2022/11/13 12:09:48;;;;;;;11.60;5.95;;;;;;;;;;5031760;28;20030;-62
2022/11/13 12:12:17;;;;;;;6.53;2.50;;;;;;;;;;5032113;28;20498;-62
2022/11/13 12:14:52;;;;;;;4.38;2.05;;;;;;;;;;5032178;28;20518;-62
2022/11/13 12:17:21;;;;;;;5.80;2.25;;;;;;;;;;5032122;28;20052;-62
2022/11/13 12:19:59;;;;;;;5.95;2.10;;;;;;;;;;5031576;28;20042;-62
2022/11/13 12:22:31;;;;;;;5.57;1.95;;;;;;;;;;5031995;28;20022;-62
2022/11/13 12:25:06;;;;;;;4.43;1.98;;;;;;;;;;5032146;28;20022;-62
2022/11/13 12:27:41;;;;;;;3.83;1.80;;;;;;;;;;5031911;28;20037;-62
2022/11/13 12:30:13;;;;;;;3.03;1.52;;;;;;;;;;5030647;28;20032;-62
2022/11/13 12:33:01;;;;;;;3.00;1.80;;;;;;;;;;5031754;28;20026;-62
2022/11/13 12:35:28;;;;;;;4.28;1.73;;;;;;;;;;5031434;28;20044;-62
2022/11/13 12:37:54;;;;;;;3.92;1.55;;;;;;;;;;5031634;28;20047;-62
2022/11/13 12:40:28;;;;;;;3.70;1.60;;;;;;;;;;5031901;28;20076;-62
2022/11/13 12:42:54;;;;;;;3.40;1.70;;;;;;;;;;5031624;28;20021;-62
2022/11/13 12:45:38;;;;;;;3.25;1.70;;;;;;;;;;5073644;28;20038;-62
2022/11/13 12:48:28;;;;;;;3.08;1.52;;;;;;;;;;5113685;28;20030;-62
2022/11/13 12:50:59;;;;;;;3.72;2.38;;;;;;;;;;5100891;28;20032;-62
2022/11/13 12:53:45;;;;;;;6.47;3.08;;;;;;;;;;5114220;28;20016;-62
2022/11/13 12:56:15;;;;;;;5.20;2.72;;;;;;;;;;5113707;28;20036;-62
2022/11/13 12:58:51;;;;;;;3.72;2.47;;;;;;;;;;5114312;28;20016;-62
2022/11/13 13:01:19;;;;;;;6.18;2.63;;;;;;;;;;5114014;28;20041;-62
2022/11/13 13:03:45;;;;;;;3.67;2.00;;;;;;;;;;5113549;28;20502;-62
2022/11/13 13:06:30;;;;;;;3.15;1.80;;;;;;;;;;5113855;28;20033;-62
2022/11/13 13:08:56;;;;;;;4.45;2.10;;;;;;;;;;5114009;28;20028;-62
2022/11/13 13:11:38;;;;;;;3.60;2.17;;;;;;;;;;5113743;28;20026;-62
2022/11/13 13:14:28;;;;;;;6.75;2.22;;;;;;;;;;5113745;28;20480;-62
2022/11/13 13:17:04;;;;;;;5.68;2.13;;;;;;;;;;5010780;28;20228;-62
2022/11/13 13:19:32;;;;;;;4.10;2.20;;;;;;;;;;5011076;28;20030;-62
2022/11/13 13:21:58;;;;;;;5.15;2.45;;;;;;;;;;5011223;28;20640;-62
2022/11/13 13:24:34;;;;;;;3.75;2.45;;;;;;;;;;5030795;28;20111;-62
2022/11/13 13:27:01;;;;;;;8.02;2.53;;;;;;;;;;5030878;28;20032;-62
2022/11/13 13:29:28;;;;;;;9.15;3.40;;;;;;;;;;5030791;28;20501;-61
2022/11/13 13:31:54;;;;;;;8.02;4.80;;;;;;;;;;5030203;28;20038;-61
2022/11/13 13:34:25;;;;;;;8.10;4.25;;;;;;;;;;5030601;28;20045;-62
2022/11/13 13:37:10;;;;;;;8.00;3.50;;;;;;;;;;5030432;28;20045;-62
2022/11/13 13:39:49;;;;;;;3.88;2.28;;;;;;;;;;5030729;28;20041;-62
2022/11/13 13:42:26;;;;;;;4.50;2.38;;;;;;;;;;5030231;28;20039;-62
2022/11/13 13:45:10;;;;;;;1.77;1.20;;;;;;;;;;5030460;28;20564;-61
2022/11/13 13:47:39;;;;;;;4.65;1.30;;;;;;;;;;5029724;28;20047;-61
2022/11/13 13:50:06;;;;;;;1.10;0.82;;;;;;;;;;5030486;28;20037;-61
2022/11/13 13:52:34;;;;;;;0.70;0.70;;;;;;;;;;5030455;28;20035;-61
2022/11/13 13:55:06;;;;;;;0.65;0.63;;;;;;;;;;5105058;28;20047;-62
2022/11/13 13:57:33;;;;;;;0.65;0.50;;;;;;;;;;5113068;28;20024;-62
2022/11/13 13:59:59;;;;;;;0.50;0.50;;;;;;;;;;5112912;28;20464;-62
2022/11/13 14:02:26;;;;;;;0.30;0.30;;;;;;;;;;5112449;28;20026;-62
2022/11/13 14:04:54;;;;;;;2.30;0.52;;;;;;;;;;5112779;28;20024;-62
2022/11/13 14:07:31;;;;;;;0.43;0.43;;;;;;;;;;5112810;28;20510;-62
2022/11/13 14:10:24;;;;;;;0.45;0.45;;;;;;;;;;5112786;28;20026;-61
2022/11/13 14:12:50;;;;;;;0.40;0.40;;;;;;;;;;5108425;28;20039;-62
2022/11/13 14:15:29;;;;;;;0.50;0.40;;;;;;;;;;5112510;28;20028;-62
2022/11/13 14:18:05;;;;;;;1.10;0.60;;;;;;;;;;5094613;28;20028;-62
2022/11/13 14:20:39;;;;;;;0.80;0.60;;;;;;;;;;5112859;28;20031;-61
2022/11/13 14:23:05;;;;;;;1.00;0.68;;;;;;;;;;5112577;28;20019;-62
2022/11/13 14:25:31;;;;;;;0.70;0.65;;;;;;;;;;5112928;28;20031;-62
2022/11/13 14:27:58;;;;;;;1.33;0.65;;;;;;;;;;5112548;28;20486;-61
2022/11/13 14:30:29;;;;;;;0.85;0.60;;;;;;;;;;5093820;28;20036;-62
2022/11/13 14:32:56;;;;;;;2.55;0.75;;;;;;;;;;5112415;28;20031;-62
2022/11/13 14:35:23;;;;;;;1.73;0.80;;;;;;;;;;5112438;28;20034;-62
2022/11/13 14:37:51;;;;;;;1.10;0.70;;;;;;;;;;5112183;28;20530;-61
2022/11/13 14:40:23;;;;;;;0.88;0.88;;;;;;;;;;5112209;28;20084;-62
2022/11/13 14:43:00;;;;;;;1.27;0.90;;;;;;;;;;5112670;28;20016;-62
2022/11/13 14:45:28;;;;;;;1.23;1.00;;;;;;;;;;5101298;28;20036;-61
2022/11/13 14:47:57;;;;;;;0.75;0.70;;;;;;;;;;5106048;28;20026;-62
2022/11/13 14:50:28;;;;;;;0.80;0.80;;;;;;;;;;5112402;28;20019;-61
2022/11/13 14:52:59;;;;;;;1.33;0.80;;;;;;;;;;5113529;28;20016;-61
2022/11/13 14:55:27;;;;;;;0.90;0.70;;;;;;;;;;5116597;28;20035;-61